sensor_id;sensor_type;location;lat;lon;timestamp;P1;durP1;ratioP1;P2;durP2;ratioP2
8596;SDS011;4336;49.310;8.646;2023-03-03T00:01:37;69.30;;;46.07;;
8596;SDS011;4336;49.310;8.646;2023-03-03T00:04:03;73.20;;;48.73;;
8596;SDS011;4336;49.310;8.646;2023-03-03T00:06:29;66.60;;;47.47;;
8596;SDS011;4336;49.310;8.646;2023-03-03T00:08:55;69.17;;;49.37;;
8596;SDS011;4336;49.310;8.646;2023-03-03T00:11:22;76.17;;;50.17;;
8596;SDS011;4336;49.310;8.646;2023-03-03T00:13:49;65.77;;;47.10;;
8596;SDS011;4336;49.310;8.646;2023-03-03T00:18:43;63.80;;;45.33;;
8596;SDS011;4336;49.310;8.646;2023-03-03T00:23:58;68.77;;;48.17;;
8596;SDS011;4336;49.310;8.646;2023-03-03T00:26:34;70.27;;;48.50;;
8596;SDS011;4336;49.310;8.646;2023-03-03T00:29:01;72.73;;;49.03;;
8596;SDS011;4336;49.310;8.646;2023-03-03T00:33:56;63.43;;;44.43;;
8596;SDS011;4336;49.310;8.646;2023-03-03T00:36:28;60.77;;;45.37;;
8596;SDS011;4336;49.310;8.646;2023-03-03T00:38:59;69.17;;;46.33;;
8596;SDS011;4336;49.310;8.646;2023-03-03T00:41:37;69.90;;;48.13;;
8596;SDS011;4336;49.310;8.646;2023-03-03T00:49:52;68.07;;;46.30;;
8596;SDS011;4336;49.310;8.646;2023-03-03T00:52:19;66.57;;;46.17;;
8596;SDS011;4336;49.310;8.646;2023-03-03T00:54:46;61.27;;;45.07;;
8596;SDS011;4336;49.310;8.646;2023-03-03T00:57:12;66.07;;;46.77;;
8596;SDS011;4336;49.310;8.646;2023-03-03T00:59:40;62.10;;;43.23;;
8596;SDS011;4336;49.310;8.646;2023-03-03T01:02:06;64.37;;;46.20;;
8596;SDS011;4336;49.310;8.646;2023-03-03T01:04:33;63.53;;;45.53;;
8596;SDS011;4336;49.310;8.646;2023-03-03T01:06:59;67.30;;;45.83;;
8596;SDS011;4336;49.310;8.646;2023-03-03T01:09:25;60.03;;;43.60;;
8596;SDS011;4336;49.310;8.646;2023-03-03T01:11:52;63.93;;;44.97;;
8596;SDS011;4336;49.310;8.646;2023-03-03T01:14:20;68.73;;;46.60;;
8596;SDS011;4336;49.310;8.646;2023-03-03T01:16:46;66.23;;;47.93;;
8596;SDS011;4336;49.310;8.646;2023-03-03T01:19:12;61.63;;;44.60;;
8596;SDS011;4336;49.310;8.646;2023-03-03T01:21:38;65.90;;;46.90;;
8596;SDS011;4336;49.310;8.646;2023-03-03T01:24:04;60.87;;;44.73;;
8596;SDS011;4336;49.310;8.646;2023-03-03T01:26:30;62.87;;;45.60;;
8596;SDS011;4336;49.310;8.646;2023-03-03T01:28:57;62.53;;;45.43;;
8596;SDS011;4336;49.310;8.646;2023-03-03T01:31:23;66.83;;;46.40;;
8596;SDS011;4336;49.310;8.646;2023-03-03T01:33:49;65.13;;;46.50;;
8596;SDS011;4336;49.310;8.646;2023-03-03T01:36:15;68.70;;;48.17;;
8596;SDS011;4336;49.310;8.646;2023-03-03T01:38:47;63.40;;;45.90;;
8596;SDS011;4336;49.310;8.646;2023-03-03T01:41:13;74.63;;;49.07;;
8596;SDS011;4336;49.310;8.646;2023-03-03T01:43:43;76.20;;;49.40;;
8596;SDS011;4336;49.310;8.646;2023-03-03T01:46:25;81.80;;;48.90;;
8596;SDS011;4336;49.310;8.646;2023-03-03T01:48:55;68.87;;;44.77;;
8596;SDS011;4336;49.310;8.646;2023-03-03T01:51:37;68.97;;;46.73;;
8596;SDS011;4336;49.310;8.646;2023-03-03T01:54:19;70.90;;;49.20;;
8596;SDS011;4336;49.310;8.646;2023-03-03T01:56:47;65.33;;;45.20;;
8596;SDS011;4336;49.310;8.646;2023-03-03T01:59:15;72.37;;;49.17;;
8596;SDS011;4336;49.310;8.646;2023-03-03T02:01:43;67.63;;;45.63;;
8596;SDS011;4336;49.310;8.646;2023-03-03T02:04:11;64.67;;;45.07;;
8596;SDS011;4336;49.310;8.646;2023-03-03T02:06:39;78.47;;;49.03;;
8596;SDS011;4336;49.310;8.646;2023-03-03T02:09:08;70.30;;;47.63;;
8596;SDS011;4336;49.310;8.646;2023-03-03T02:11:36;69.63;;;45.73;;
8596;SDS011;4336;49.310;8.646;2023-03-03T02:14:03;73.87;;;49.50;;
8596;SDS011;4336;49.310;8.646;2023-03-03T02:16:29;77.80;;;50.03;;
8596;SDS011;4336;49.310;8.646;2023-03-03T02:18:55;81.93;;;50.53;;
8596;SDS011;4336;49.310;8.646;2023-03-03T02:21:22;74.40;;;47.57;;
8596;SDS011;4336;49.310;8.646;2023-03-03T02:23:52;80.83;;;49.70;;
8596;SDS011;4336;49.310;8.646;2023-03-03T02:26:22;70.73;;;46.67;;
8596;SDS011;4336;49.310;8.646;2023-03-03T02:28:54;80.27;;;50.63;;
8596;SDS011;4336;49.310;8.646;2023-03-03T02:31:21;69.80;;;46.93;;
8596;SDS011;4336;49.310;8.646;2023-03-03T02:33:48;77.00;;;49.07;;
8596;SDS011;4336;49.310;8.646;2023-03-03T02:36:19;74.97;;;50.30;;
8596;SDS011;4336;49.310;8.646;2023-03-03T02:44:03;71.13;;;48.03;;
8596;SDS011;4336;49.310;8.646;2023-03-03T02:46:32;65.73;;;45.57;;
8596;SDS011;4336;49.310;8.646;2023-03-03T02:48:59;79.13;;;48.40;;
8596;SDS011;4336;49.310;8.646;2023-03-03T02:51:25;73.13;;;48.87;;
8596;SDS011;4336;49.310;8.646;2023-03-03T02:53:51;72.97;;;47.27;;
8596;SDS011;4336;49.310;8.646;2023-03-03T02:56:18;68.77;;;45.57;;
8596;SDS011;4336;49.310;8.646;2023-03-03T02:58:44;68.33;;;45.67;;
8596;SDS011;4336;49.310;8.646;2023-03-03T03:01:10;70.87;;;47.43;;
8596;SDS011;4336;49.310;8.646;2023-03-03T03:03:37;68.20;;;43.43;;
8596;SDS011;4336;49.310;8.646;2023-03-03T03:06:05;68.77;;;47.13;;
8596;SDS011;4336;49.310;8.646;2023-03-03T03:08:33;72.23;;;46.73;;
8596;SDS011;4336;49.310;8.646;2023-03-03T03:10:59;70.90;;;46.67;;
8596;SDS011;4336;49.310;8.646;2023-03-03T03:13:26;80.63;;;51.00;;
8596;SDS011;4336;49.310;8.646;2023-03-03T03:15:53;74.83;;;46.63;;
8596;SDS011;4336;49.310;8.646;2023-03-03T03:18:19;65.67;;;45.03;;
8596;SDS011;4336;49.310;8.646;2023-03-03T03:20:46;66.20;;;45.43;;
8596;SDS011;4336;49.310;8.646;2023-03-03T03:23:13;71.80;;;46.23;;
8596;SDS011;4336;49.310;8.646;2023-03-03T03:25:39;70.33;;;46.77;;
8596;SDS011;4336;49.310;8.646;2023-03-03T03:28:13;74.30;;;48.67;;
8596;SDS011;4336;49.310;8.646;2023-03-03T03:30:39;65.10;;;44.57;;
8596;SDS011;4336;49.310;8.646;2023-03-03T03:33:07;67.47;;;43.40;;
8596;SDS011;4336;49.310;8.646;2023-03-03T03:35:34;70.37;;;47.63;;
8596;SDS011;4336;49.310;8.646;2023-03-03T03:38:01;66.57;;;44.30;;
8596;SDS011;4336;49.310;8.646;2023-03-03T03:40:28;69.00;;;44.87;;
8596;SDS011;4336;49.310;8.646;2023-03-03T03:42:55;71.63;;;46.00;;
8596;SDS011;4336;49.310;8.646;2023-03-03T03:45:22;66.13;;;45.07;;
8596;SDS011;4336;49.310;8.646;2023-03-03T03:47:48;67.13;;;45.30;;
8596;SDS011;4336;49.310;8.646;2023-03-03T03:50:15;64.27;;;42.90;;
8596;SDS011;4336;49.310;8.646;2023-03-03T03:52:42;57.60;;;41.47;;
8596;SDS011;4336;49.310;8.646;2023-03-03T03:55:09;62.90;;;40.00;;
8596;SDS011;4336;49.310;8.646;2023-03-03T03:57:37;54.70;;;38.57;;
8596;SDS011;4336;49.310;8.646;2023-03-03T04:00:04;54.10;;;39.80;;
8596;SDS011;4336;49.310;8.646;2023-03-03T04:02:39;53.70;;;35.47;;
8596;SDS011;4336;49.310;8.646;2023-03-03T04:05:09;57.13;;;36.33;;
8596;SDS011;4336;49.310;8.646;2023-03-03T04:07:36;56.90;;;37.77;;
8596;SDS011;4336;49.310;8.646;2023-03-03T04:10:02;51.37;;;33.80;;
8596;SDS011;4336;49.310;8.646;2023-03-03T04:12:28;50.33;;;35.97;;
8596;SDS011;4336;49.310;8.646;2023-03-03T04:15:00;55.27;;;38.13;;
8596;SDS011;4336;49.310;8.646;2023-03-03T04:17:27;64.87;;;41.00;;
8596;SDS011;4336;49.310;8.646;2023-03-03T04:19:53;63.93;;;41.17;;
8596;SDS011;4336;49.310;8.646;2023-03-03T04:22:19;57.47;;;40.57;;
8596;SDS011;4336;49.310;8.646;2023-03-03T04:24:46;64.87;;;44.10;;
8596;SDS011;4336;49.310;8.646;2023-03-03T04:27:14;63.33;;;42.73;;
8596;SDS011;4336;49.310;8.646;2023-03-03T04:29:41;64.23;;;42.83;;
8596;SDS011;4336;49.310;8.646;2023-03-03T04:32:08;68.70;;;44.53;;
8596;SDS011;4336;49.310;8.646;2023-03-03T04:34:34;68.23;;;43.87;;
8596;SDS011;4336;49.310;8.646;2023-03-03T04:37:00;74.70;;;48.13;;
8596;SDS011;4336;49.310;8.646;2023-03-03T04:39:29;72.53;;;45.03;;
8596;SDS011;4336;49.310;8.646;2023-03-03T04:42:05;69.57;;;44.30;;
8596;SDS011;4336;49.310;8.646;2023-03-03T04:44:31;67.07;;;42.40;;
8596;SDS011;4336;49.310;8.646;2023-03-03T04:46:58;63.57;;;43.00;;
8596;SDS011;4336;49.310;8.646;2023-03-03T04:49:24;71.00;;;46.43;;
8596;SDS011;4336;49.310;8.646;2023-03-03T04:51:51;65.70;;;43.37;;
8596;SDS011;4336;49.310;8.646;2023-03-03T04:54:17;80.27;;;46.90;;
8596;SDS011;4336;49.310;8.646;2023-03-03T04:56:43;66.53;;;43.23;;
8596;SDS011;4336;49.310;8.646;2023-03-03T04:59:09;64.87;;;43.87;;
8596;SDS011;4336;49.310;8.646;2023-03-03T05:01:36;70.90;;;43.80;;
8596;SDS011;4336;49.310;8.646;2023-03-03T05:04:02;68.53;;;46.00;;
8596;SDS011;4336;49.310;8.646;2023-03-03T05:06:29;74.90;;;47.47;;
8596;SDS011;4336;49.310;8.646;2023-03-03T05:08:55;67.30;;;43.47;;
8596;SDS011;4336;49.310;8.646;2023-03-03T05:11:21;65.07;;;42.60;;
8596;SDS011;4336;49.310;8.646;2023-03-03T05:13:47;73.37;;;45.57;;
8596;SDS011;4336;49.310;8.646;2023-03-03T05:16:13;67.57;;;43.53;;
8596;SDS011;4336;49.310;8.646;2023-03-03T05:18:39;76.43;;;43.43;;
8596;SDS011;4336;49.310;8.646;2023-03-03T05:21:06;62.50;;;43.37;;
8596;SDS011;4336;49.310;8.646;2023-03-03T05:23:32;81.27;;;49.93;;
8596;SDS011;4336;49.310;8.646;2023-03-03T05:25:58;71.73;;;45.93;;
8596;SDS011;4336;49.310;8.646;2023-03-03T05:28:24;66.33;;;44.27;;
8596;SDS011;4336;49.310;8.646;2023-03-03T05:30:50;63.33;;;44.17;;
8596;SDS011;4336;49.310;8.646;2023-03-03T05:33:17;68.63;;;44.60;;
8596;SDS011;4336;49.310;8.646;2023-03-03T05:35:43;75.17;;;45.83;;
8596;SDS011;4336;49.310;8.646;2023-03-03T05:38:09;65.93;;;43.33;;
8596;SDS011;4336;49.310;8.646;2023-03-03T05:40:36;63.63;;;42.70;;
8596;SDS011;4336;49.310;8.646;2023-03-03T05:43:02;61.70;;;43.37;;
8596;SDS011;4336;49.310;8.646;2023-03-03T05:45:29;66.77;;;43.73;;
8596;SDS011;4336;49.310;8.646;2023-03-03T05:47:55;63.33;;;42.77;;
8596;SDS011;4336;49.310;8.646;2023-03-03T05:50:21;62.20;;;40.03;;
8596;SDS011;4336;49.310;8.646;2023-03-03T05:52:50;72.63;;;44.70;;
8596;SDS011;4336;49.310;8.646;2023-03-03T05:55:17;74.70;;;46.90;;
8596;SDS011;4336;49.310;8.646;2023-03-03T05:57:43;66.80;;;44.83;;
8596;SDS011;4336;49.310;8.646;2023-03-03T06:00:10;71.97;;;46.53;;
8596;SDS011;4336;49.310;8.646;2023-03-03T06:02:40;65.73;;;42.87;;
8596;SDS011;4336;49.310;8.646;2023-03-03T06:05:07;75.33;;;45.80;;
8596;SDS011;4336;49.310;8.646;2023-03-03T06:07:33;72.33;;;46.33;;
8596;SDS011;4336;49.310;8.646;2023-03-03T06:09:59;77.30;;;46.70;;
8596;SDS011;4336;49.310;8.646;2023-03-03T06:12:27;70.50;;;45.63;;
8596;SDS011;4336;49.310;8.646;2023-03-03T06:14:53;68.57;;;45.37;;
8596;SDS011;4336;49.310;8.646;2023-03-03T06:17:20;60.37;;;43.10;;
8596;SDS011;4336;49.310;8.646;2023-03-03T06:19:46;63.87;;;41.73;;
8596;SDS011;4336;49.310;8.646;2023-03-03T06:22:12;62.73;;;42.67;;
8596;SDS011;4336;49.310;8.646;2023-03-03T06:24:38;66.57;;;44.07;;
8596;SDS011;4336;49.310;8.646;2023-03-03T06:27:04;63.53;;;42.30;;
8596;SDS011;4336;49.310;8.646;2023-03-03T06:29:31;75.43;;;48.90;;
8596;SDS011;4336;49.310;8.646;2023-03-03T06:31:57;71.37;;;44.47;;
8596;SDS011;4336;49.310;8.646;2023-03-03T06:34:23;63.83;;;42.83;;
8596;SDS011;4336;49.310;8.646;2023-03-03T06:36:49;72.93;;;48.90;;
8596;SDS011;4336;49.310;8.646;2023-03-03T06:39:16;68.97;;;46.93;;
8596;SDS011;4336;49.310;8.646;2023-03-03T06:41:42;73.80;;;48.90;;
8596;SDS011;4336;49.310;8.646;2023-03-03T06:44:09;64.73;;;45.37;;
8596;SDS011;4336;49.310;8.646;2023-03-03T06:46:36;66.27;;;44.83;;
8596;SDS011;4336;49.310;8.646;2023-03-03T06:49:02;65.23;;;43.37;;
8596;SDS011;4336;49.310;8.646;2023-03-03T06:51:30;64.03;;;43.07;;
8596;SDS011;4336;49.310;8.646;2023-03-03T06:53:58;64.80;;;42.53;;
8596;SDS011;4336;49.310;8.646;2023-03-03T06:56:26;60.73;;;43.80;;
8596;SDS011;4336;49.310;8.646;2023-03-03T06:58:55;67.93;;;41.47;;
8596;SDS011;4336;49.310;8.646;2023-03-03T07:01:21;62.77;;;41.30;;
8596;SDS011;4336;49.310;8.646;2023-03-03T07:03:47;67.20;;;42.53;;
8596;SDS011;4336;49.310;8.646;2023-03-03T07:06:15;52.50;;;38.77;;
8596;SDS011;4336;49.310;8.646;2023-03-03T07:08:43;57.80;;;38.73;;
8596;SDS011;4336;49.310;8.646;2023-03-03T07:11:10;55.00;;;37.47;;
8596;SDS011;4336;49.310;8.646;2023-03-03T07:13:38;53.07;;;35.90;;
8596;SDS011;4336;49.310;8.646;2023-03-03T07:16:08;48.57;;;35.90;;
8596;SDS011;4336;49.310;8.646;2023-03-03T07:18:52;45.80;;;30.87;;
8596;SDS011;4336;49.310;8.646;2023-03-03T07:21:20;48.87;;;34.63;;
8596;SDS011;4336;49.310;8.646;2023-03-03T07:23:50;42.40;;;30.83;;
8596;SDS011;4336;49.310;8.646;2023-03-03T07:26:20;45.30;;;31.73;;
8596;SDS011;4336;49.310;8.646;2023-03-03T07:28:56;38.63;;;29.53;;
8596;SDS011;4336;49.310;8.646;2023-03-03T07:31:39;35.37;;;28.10;;
8596;SDS011;4336;49.310;8.646;2023-03-03T07:34:19;36.23;;;27.83;;
8596;SDS011;4336;49.310;8.646;2023-03-03T07:36:46;34.13;;;26.13;;
8596;SDS011;4336;49.310;8.646;2023-03-03T07:44:36;52.57;;;33.93;;
8596;SDS011;4336;49.310;8.646;2023-03-03T07:47:11;42.13;;;33.87;;
8596;SDS011;4336;49.310;8.646;2023-03-03T07:49:39;40.23;;;32.83;;
8596;SDS011;4336;49.310;8.646;2023-03-03T07:54:51;41.07;;;32.00;;
8596;SDS011;4336;49.310;8.646;2023-03-03T07:59:47;42.97;;;31.07;;
8596;SDS011;4336;49.310;8.646;2023-03-03T08:04:55;42.87;;;26.60;;
8596;SDS011;4336;49.310;8.646;2023-03-03T08:07:21;33.33;;;24.97;;
8596;SDS011;4336;49.310;8.646;2023-03-03T08:09:55;33.80;;;25.67;;
8596;SDS011;4336;49.310;8.646;2023-03-03T08:12:24;31.77;;;26.43;;
8596;SDS011;4336;49.310;8.646;2023-03-03T08:14:53;36.23;;;25.03;;
8596;SDS011;4336;49.310;8.646;2023-03-03T08:17:20;39.87;;;29.93;;
8596;SDS011;4336;49.310;8.646;2023-03-03T08:19:47;50.70;;;38.10;;
8596;SDS011;4336;49.310;8.646;2023-03-03T08:22:14;34.90;;;28.73;;
8596;SDS011;4336;49.310;8.646;2023-03-03T08:24:41;35.80;;;29.87;;
8596;SDS011;4336;49.310;8.646;2023-03-03T08:27:07;33.40;;;27.87;;
8596;SDS011;4336;49.310;8.646;2023-03-03T08:29:33;33.00;;;26.90;;
8596;SDS011;4336;49.310;8.646;2023-03-03T08:31:59;36.47;;;27.83;;
8596;SDS011;4336;49.310;8.646;2023-03-03T08:34:25;32.20;;;26.67;;
8596;SDS011;4336;49.310;8.646;2023-03-03T08:36:51;33.87;;;26.80;;
8596;SDS011;4336;49.310;8.646;2023-03-03T08:39:18;31.60;;;28.07;;
8596;SDS011;4336;49.310;8.646;2023-03-03T08:41:44;28.70;;;25.33;;
8596;SDS011;4336;49.310;8.646;2023-03-03T08:44:11;34.43;;;25.83;;
8596;SDS011;4336;49.310;8.646;2023-03-03T08:46:37;33.97;;;26.97;;
8596;SDS011;4336;49.310;8.646;2023-03-03T08:49:04;29.37;;;25.67;;
8596;SDS011;4336;49.310;8.646;2023-03-03T08:51:30;34.13;;;26.87;;
8596;SDS011;4336;49.310;8.646;2023-03-03T08:53:58;31.60;;;25.33;;
8596;SDS011;4336;49.310;8.646;2023-03-03T08:56:24;37.50;;;28.43;;
8596;SDS011;4336;49.310;8.646;2023-03-03T08:58:50;32.93;;;27.07;;
8596;SDS011;4336;49.310;8.646;2023-03-03T09:01:16;34.20;;;26.80;;
8596;SDS011;4336;49.310;8.646;2023-03-03T09:03:43;33.80;;;26.13;;
8596;SDS011;4336;49.310;8.646;2023-03-03T09:06:09;30.93;;;26.17;;
8596;SDS011;4336;49.310;8.646;2023-03-03T09:08:36;29.83;;;25.90;;
8596;SDS011;4336;49.310;8.646;2023-03-03T09:11:02;32.97;;;25.90;;
8596;SDS011;4336;49.310;8.646;2023-03-03T09:13:34;32.63;;;27.03;;
8596;SDS011;4336;49.310;8.646;2023-03-03T09:16:00;33.83;;;29.00;;
8596;SDS011;4336;49.310;8.646;2023-03-03T09:18:30;36.57;;;29.60;;
8596;SDS011;4336;49.310;8.646;2023-03-03T09:20:57;30.70;;;27.33;;
8596;SDS011;4336;49.310;8.646;2023-03-03T09:25:56;30.03;;;26.83;;
8596;SDS011;4336;49.310;8.646;2023-03-03T09:28:24;33.37;;;29.80;;
8596;SDS011;4336;49.310;8.646;2023-03-03T09:30:59;30.67;;;27.03;;
8596;SDS011;4336;49.310;8.646;2023-03-03T09:33:27;33.13;;;26.07;;
8596;SDS011;4336;49.310;8.646;2023-03-03T09:38:53;33.40;;;29.80;;
8596;SDS011;4336;49.310;8.646;2023-03-03T09:41:27;36.67;;;28.13;;
8596;SDS011;4336;49.310;8.646;2023-03-03T09:44:18;32.67;;;27.13;;
8596;SDS011;4336;49.310;8.646;2023-03-03T10:19:43;41.03;;;33.23;;
8596;SDS011;4336;49.310;8.646;2023-03-03T10:25:21;40.40;;;32.87;;
8596;SDS011;4336;49.310;8.646;2023-03-03T10:35:51;32.07;;;27.40;;
8596;SDS011;4336;49.310;8.646;2023-03-03T10:41:10;33.70;;;30.13;;
8596;SDS011;4336;49.310;8.646;2023-03-03T11:01:58;37.57;;;32.17;;
8596;SDS011;4336;49.310;8.646;2023-03-03T11:07:34;33.77;;;30.07;;
8596;SDS011;4336;49.310;8.646;2023-03-03T11:12:55;42.33;;;32.17;;
8596;SDS011;4336;49.310;8.646;2023-03-03T11:18:36;37.43;;;32.67;;
8596;SDS011;4336;49.310;8.646;2023-03-03T11:32:00;37.50;;;33.50;;
8596;SDS011;4336;49.310;8.646;2023-03-03T11:37:22;37.10;;;31.97;;
8596;SDS011;4336;49.310;8.646;2023-03-03T11:39:55;35.87;;;31.50;;
8596;SDS011;4336;49.310;8.646;2023-03-03T11:47:46;37.47;;;33.23;;
8596;SDS011;4336;49.310;8.646;2023-03-03T11:50:29;37.17;;;32.73;;
8596;SDS011;4336;49.310;8.646;2023-03-03T11:58:11;38.37;;;34.17;;
8596;SDS011;4336;49.310;8.646;2023-03-03T12:03:30;41.73;;;34.87;;
8596;SDS011;4336;49.310;8.646;2023-03-03T12:09:03;37.80;;;33.00;;
8596;SDS011;4336;49.310;8.646;2023-03-03T12:11:41;37.20;;;32.77;;
8596;SDS011;4336;49.310;8.646;2023-03-03T12:16:55;35.90;;;32.13;;
8596;SDS011;4336;49.310;8.646;2023-03-03T12:19:45;37.83;;;33.90;;
8596;SDS011;4336;49.310;8.646;2023-03-03T12:22:40;37.87;;;33.73;;
8596;SDS011;4336;49.310;8.646;2023-03-03T12:27:49;38.30;;;34.13;;
8596;SDS011;4336;49.310;8.646;2023-03-03T12:30:24;38.47;;;34.37;;
8596;SDS011;4336;49.310;8.646;2023-03-03T12:33:17;35.60;;;31.90;;
8596;SDS011;4336;49.310;8.646;2023-03-03T12:41:07;39.53;;;34.90;;
8596;SDS011;4336;49.310;8.646;2023-03-03T12:43:46;39.10;;;34.40;;
8596;SDS011;4336;49.310;8.646;2023-03-03T12:48:50;36.00;;;31.97;;
8596;SDS011;4336;49.310;8.646;2023-03-03T12:56:39;38.43;;;34.33;;
8596;SDS011;4336;49.310;8.646;2023-03-03T12:59:20;38.70;;;34.53;;
8596;SDS011;4336;49.310;8.646;2023-03-03T13:04:44;38.57;;;34.47;;
8596;SDS011;4336;49.310;8.646;2023-03-03T13:10:17;36.50;;;32.70;;
8596;SDS011;4336;49.310;8.646;2023-03-03T13:15:30;35.57;;;31.87;;
8596;SDS011;4336;49.310;8.646;2023-03-03T13:28:58;43.13;;;34.47;;
8596;SDS011;4336;49.310;8.646;2023-03-03T13:31:46;37.90;;;33.50;;
8596;SDS011;4336;49.310;8.646;2023-03-03T13:42:27;39.97;;;35.00;;
8596;SDS011;4336;49.310;8.646;2023-03-03T13:50:40;38.27;;;33.87;;
8596;SDS011;4336;49.310;8.646;2023-03-03T13:53:39;41.33;;;36.90;;
8596;SDS011;4336;49.310;8.646;2023-03-03T14:07:00;39.53;;;34.07;;
8596;SDS011;4336;49.310;8.646;2023-03-03T14:15:28;42.33;;;33.70;;
8596;SDS011;4336;49.310;8.646;2023-03-03T14:18:04;39.47;;;34.00;;
8596;SDS011;4336;49.310;8.646;2023-03-03T14:21:56;41.53;;;35.47;;
8596;SDS011;4336;49.310;8.646;2023-03-03T14:24:08;37.80;;;33.70;;
8596;SDS011;4336;49.310;8.646;2023-03-03T14:26:47;42.73;;;34.47;;
8596;SDS011;4336;49.310;8.646;2023-03-03T14:31:56;38.70;;;34.10;;
8596;SDS011;4336;49.310;8.646;2023-03-03T14:42:38;40.17;;;35.23;;
8596;SDS011;4336;49.310;8.646;2023-03-03T14:45:32;41.33;;;36.60;;
8596;SDS011;4336;49.310;8.646;2023-03-03T14:48:05;41.07;;;34.20;;
8596;SDS011;4336;49.310;8.646;2023-03-03T14:50:38;42.13;;;36.77;;
8596;SDS011;4336;49.310;8.646;2023-03-03T14:55:44;44.43;;;36.10;;
8596;SDS011;4336;49.310;8.646;2023-03-03T14:58:25;38.50;;;34.20;;
8596;SDS011;4336;49.310;8.646;2023-03-03T15:01:06;38.30;;;33.70;;
8596;SDS011;4336;49.310;8.646;2023-03-03T15:03:44;42.83;;;35.80;;
8596;SDS011;4336;49.310;8.646;2023-03-03T15:06:25;46.93;;;37.50;;
8596;SDS011;4336;49.310;8.646;2023-03-03T15:09:18;42.50;;;33.67;;
8596;SDS011;4336;49.310;8.646;2023-03-03T15:11:44;52.37;;;34.60;;
8596;SDS011;4336;49.310;8.646;2023-03-03T15:14:11;41.73;;;36.50;;
8596;SDS011;4336;49.310;8.646;2023-03-03T15:16:42;46.23;;;35.33;;
8596;SDS011;4336;49.310;8.646;2023-03-03T15:24:39;46.07;;;34.73;;
8596;SDS011;4336;49.310;8.646;2023-03-03T15:27:20;44.20;;;34.53;;
8596;SDS011;4336;49.310;8.646;2023-03-03T15:30:03;41.80;;;35.07;;
8596;SDS011;4336;49.310;8.646;2023-03-03T15:32:41;45.93;;;33.53;;
8596;SDS011;4336;49.310;8.646;2023-03-03T15:35:15;41.10;;;33.90;;
8596;SDS011;4336;49.310;8.646;2023-03-03T15:37:46;48.50;;;36.03;;
8596;SDS011;4336;49.310;8.646;2023-03-03T15:40:48;53.43;;;36.53;;
8596;SDS011;4336;49.310;8.646;2023-03-03T15:43:19;41.37;;;32.50;;
8596;SDS011;4336;49.310;8.646;2023-03-03T15:45:59;52.87;;;33.93;;
8596;SDS011;4336;49.310;8.646;2023-03-03T15:56:45;37.23;;;31.77;;
8596;SDS011;4336;49.310;8.646;2023-03-03T16:02:13;40.27;;;32.10;;
8596;SDS011;4336;49.310;8.646;2023-03-03T16:04:52;40.03;;;31.20;;
8596;SDS011;4336;49.310;8.646;2023-03-03T16:07:39;43.67;;;32.97;;
8596;SDS011;4336;49.310;8.646;2023-03-03T16:29:30;43.93;;;29.90;;
8596;SDS011;4336;49.310;8.646;2023-03-03T16:34:44;31.33;;;27.40;;
8596;SDS011;4336;49.310;8.646;2023-03-03T16:37:21;34.23;;;28.70;;
8596;SDS011;4336;49.310;8.646;2023-03-03T16:42:30;36.63;;;26.60;;
8596;SDS011;4336;49.310;8.646;2023-03-03T16:45:19;33.97;;;27.47;;
8596;SDS011;4336;49.310;8.646;2023-03-03T16:50:26;40.60;;;29.20;;
8596;SDS011;4336;49.310;8.646;2023-03-03T16:52:59;35.63;;;27.70;;
8596;SDS011;4336;49.310;8.646;2023-03-03T16:55:29;35.07;;;25.63;;
8596;SDS011;4336;49.310;8.646;2023-03-03T16:58:20;35.47;;;26.13;;
8596;SDS011;4336;49.310;8.646;2023-03-03T17:03:39;31.07;;;24.10;;
8596;SDS011;4336;49.310;8.646;2023-03-03T17:06:18;30.67;;;24.20;;
8596;SDS011;4336;49.310;8.646;2023-03-03T17:09:11;32.50;;;26.57;;
8596;SDS011;4336;49.310;8.646;2023-03-03T17:11:48;36.17;;;25.43;;
8596;SDS011;4336;49.310;8.646;2023-03-03T17:29:36;33.57;;;26.63;;
8596;SDS011;4336;49.310;8.646;2023-03-03T17:37:04;31.47;;;25.13;;
8596;SDS011;4336;49.310;8.646;2023-03-03T17:39:44;34.13;;;25.63;;
8596;SDS011;4336;49.310;8.646;2023-03-03T17:42:24;34.73;;;26.40;;
8596;SDS011;4336;49.310;8.646;2023-03-03T17:45:06;35.17;;;25.97;;
8596;SDS011;4336;49.310;8.646;2023-03-03T17:47:37;34.50;;;25.53;;
8596;SDS011;4336;49.310;8.646;2023-03-03T17:50:11;33.97;;;25.77;;
8596;SDS011;4336;49.310;8.646;2023-03-03T17:57:57;31.80;;;25.67;;
8596;SDS011;4336;49.310;8.646;2023-03-03T18:00:46;30.23;;;24.60;;
8596;SDS011;4336;49.310;8.646;2023-03-03T18:06:19;27.50;;;21.57;;
8596;SDS011;4336;49.310;8.646;2023-03-03T18:08:59;34.43;;;24.17;;
8596;SDS011;4336;49.310;8.646;2023-03-03T18:16:55;30.97;;;24.97;;
8596;SDS011;4336;49.310;8.646;2023-03-03T18:22:17;31.60;;;26.60;;
8596;SDS011;4336;49.310;8.646;2023-03-03T18:32:41;31.93;;;24.33;;
8596;SDS011;4336;49.310;8.646;2023-03-03T18:46:00;34.17;;;27.83;;
8596;SDS011;4336;49.310;8.646;2023-03-03T18:51:12;38.07;;;29.43;;
8596;SDS011;4336;49.310;8.646;2023-03-03T18:54:21;36.23;;;27.97;;
8596;SDS011;4336;49.310;8.646;2023-03-03T18:59:47;35.63;;;27.10;;
8596;SDS011;4336;49.310;8.646;2023-03-03T19:04:53;41.13;;;28.20;;
8596;SDS011;4336;49.310;8.646;2023-03-03T19:07:21;37.13;;;28.23;;
8596;SDS011;4336;49.310;8.646;2023-03-03T19:13:07;37.83;;;27.50;;
8596;SDS011;4336;49.310;8.646;2023-03-03T19:15:40;34.33;;;26.43;;
8596;SDS011;4336;49.310;8.646;2023-03-03T19:17:55;36.50;;;27.60;;
8596;SDS011;4336;49.310;8.646;2023-03-03T19:20:22;37.43;;;27.23;;
8596;SDS011;4336;49.310;8.646;2023-03-03T19:22:59;36.73;;;28.03;;
8596;SDS011;4336;49.310;8.646;2023-03-03T19:25:27;39.53;;;29.70;;
8596;SDS011;4336;49.310;8.646;2023-03-03T19:30:57;38.73;;;29.00;;
8596;SDS011;4336;49.310;8.646;2023-03-03T19:36:20;36.83;;;30.13;;
8596;SDS011;4336;49.310;8.646;2023-03-03T19:41:38;41.07;;;30.67;;
8596;SDS011;4336;49.310;8.646;2023-03-03T19:46:54;40.53;;;32.93;;
8596;SDS011;4336;49.310;8.646;2023-03-03T19:49:33;45.33;;;32.57;;
8596;SDS011;4336;49.310;8.646;2023-03-03T19:52:28;48.37;;;32.90;;
8596;SDS011;4336;49.310;8.646;2023-03-03T20:03:10;37.50;;;30.03;;
8596;SDS011;4336;49.310;8.646;2023-03-03T20:15:52;40.63;;;29.77;;
8596;SDS011;4336;49.310;8.646;2023-03-03T20:23:23;37.90;;;27.63;;
8596;SDS011;4336;49.310;8.646;2023-03-03T20:25:52;35.20;;;26.50;;
8596;SDS011;4336;49.310;8.646;2023-03-03T20:43:21;35.67;;;27.37;;
8596;SDS011;4336;49.310;8.646;2023-03-03T20:51:24;35.00;;;26.53;;
8596;SDS011;4336;49.310;8.646;2023-03-03T20:53:56;32.47;;;26.17;;
8596;SDS011;4336;49.310;8.646;2023-03-03T20:56:47;38.10;;;29.23;;
8596;SDS011;4336;49.310;8.646;2023-03-03T20:59:34;48.80;;;30.03;;
8596;SDS011;4336;49.310;8.646;2023-03-03T21:04:29;38.67;;;29.20;;
8596;SDS011;4336;49.310;8.646;2023-03-03T21:06:56;39.70;;;29.30;;
8596;SDS011;4336;49.310;8.646;2023-03-03T21:09:27;44.17;;;28.20;;
8596;SDS011;4336;49.310;8.646;2023-03-03T21:11:53;34.23;;;26.77;;
8596;SDS011;4336;49.310;8.646;2023-03-03T21:14:21;36.07;;;27.53;;
8596;SDS011;4336;49.310;8.646;2023-03-03T21:16:48;36.23;;;27.60;;
8596;SDS011;4336;49.310;8.646;2023-03-03T21:19:25;32.83;;;24.23;;
8596;SDS011;4336;49.310;8.646;2023-03-03T21:21:51;31.13;;;24.70;;
8596;SDS011;4336;49.310;8.646;2023-03-03T21:24:18;34.87;;;26.13;;
8596;SDS011;4336;49.310;8.646;2023-03-03T21:26:57;33.50;;;24.43;;
8596;SDS011;4336;49.310;8.646;2023-03-03T21:29:25;35.37;;;25.13;;
8596;SDS011;4336;49.310;8.646;2023-03-03T21:31:52;31.40;;;23.57;;
8596;SDS011;4336;49.310;8.646;2023-03-03T21:34:23;28.73;;;21.27;;
8596;SDS011;4336;49.310;8.646;2023-03-03T21:36:50;32.30;;;23.67;;
8596;SDS011;4336;49.310;8.646;2023-03-03T21:39:21;35.27;;;25.77;;
8596;SDS011;4336;49.310;8.646;2023-03-03T21:47:06;30.20;;;23.37;;
8596;SDS011;4336;49.310;8.646;2023-03-03T21:49:32;27.30;;;22.10;;